createdAt,value
2022-08-17T00:00:34.197Z,100421.13
2022-08-17T00:03:03.226Z,100419.63
2022-08-17T00:05:33.414Z,100412.38
2022-08-17T00:08:01.196Z,100406.16
2022-08-17T00:10:31.147Z,100404.50
2022-08-17T00:13:00.677Z,100396.59
2022-08-17T00:15:29.559Z,100398.69
2022-08-17T00:17:57.190Z,100398.88
2022-08-17T00:20:32.068Z,100395.34
2022-08-17T00:23:11.819Z,100400.94
2022-08-17T00:25:41.222Z,100404.00
2022-08-17T00:28:09.131Z,100402.34
2022-08-17T00:30:51.295Z,100399.88
2022-08-17T00:33:25.988Z,100393.19
2022-08-17T00:35:55.015Z,100395.91
2022-08-17T00:38:23.685Z,100396.09
2022-08-17T00:40:55.887Z,100393.81
2022-08-17T00:43:31.071Z,100388.81
2022-08-17T00:46:00.741Z,100384.03
2022-08-17T00:48:30.789Z,100384.84
2022-08-17T00:51:08.090Z,100381.53
2022-08-17T00:53:39.161Z,100395.38
2022-08-17T00:56:11.708Z,100388.53
2022-08-17T00:58:39.801Z,100397.00
2022-08-17T01:01:11.081Z,100394.53
2022-08-17T01:03:39.987Z,100403.63
2022-08-17T01:06:09.941Z,100389.34
2022-08-17T01:08:39.883Z,100394.28
2022-08-17T01:11:09.191Z,100393.00
2022-08-17T01:13:41.609Z,100392.75
2022-08-17T01:16:17.042Z,100391.25
2022-08-17T01:18:46.468Z,100390.44
2022-08-17T01:21:21.319Z,100393.53
2022-08-17T01:23:50.605Z,100394.38
2022-08-17T01:26:19.033Z,100384.63
2022-08-17T01:28:54.180Z,100399.97
2022-08-17T01:31:25.684Z,100391.03
2022-08-17T01:33:53.845Z,100392.25
2022-08-17T01:36:21.902Z,100388.94
2022-08-17T01:38:51.557Z,100381.88
2022-08-17T01:41:22.870Z,100379.19
2022-08-17T01:43:54.786Z,100379.38
2022-08-17T01:46:23.843Z,100377.50
2022-08-17T01:48:51.673Z,100372.91
2022-08-17T01:51:20.431Z,100380.16
2022-08-17T01:53:52.890Z,100379.53
2022-08-17T01:56:24.200Z,100375.38
2022-08-17T01:58:53.073Z,100378.06
2022-08-17T02:01:24.579Z,100369.53
2022-08-17T02:03:53.187Z,100369.75
2022-08-17T02:06:28.441Z,100372.81
2022-08-17T02:09:02.581Z,100371.53
2022-08-17T02:11:33.135Z,100367.38
2022-08-17T02:14:03.002Z,100380.22
2022-08-17T02:16:37.313Z,100373.34
2022-08-17T02:19:08.133Z,100375.41
2022-08-17T02:21:36.229Z,100374.78
2022-08-17T02:24:06.385Z,100367.06
2022-08-17T02:26:36.330Z,100369.13
2022-08-17T02:29:04.957Z,100369.72
2022-08-17T02:31:32.675Z,100363.25
2022-08-17T02:34:04.784Z,100363.59
2022-08-17T02:36:35.134Z,100365.03
2022-08-17T02:39:05.907Z,100359.00
2022-08-17T02:41:33.713Z,100358.38
2022-08-17T02:44:01.681Z,100358.78
2022-08-17T02:46:30.398Z,100368.03
2022-08-17T02:48:58.213Z,100369.44
2022-08-17T02:51:26.008Z,100374.34
2022-08-17T02:54:35.641Z,100373.06
2022-08-17T02:56:42.774Z,100369.94
2022-08-17T02:59:10.452Z,100370.31
2022-08-17T03:01:38.107Z,100364.47
2022-08-17T03:04:06.270Z,100359.47
2022-08-17T03:06:33.959Z,100362.53
2022-08-17T03:09:01.618Z,100359.41
2022-08-17T03:11:29.208Z,100364.13
2022-08-17T03:13:59.063Z,100360.81
2022-08-17T03:16:26.766Z,100361.00
2022-08-17T03:18:55.076Z,100359.50
2022-08-17T03:21:22.684Z,100357.69
2022-08-17T03:23:54.463Z,100359.72
2022-08-17T03:26:22.456Z,100353.31
2022-08-17T03:28:50.104Z,100360.53
2022-08-17T03:31:20.603Z,100360.53
2022-08-17T03:33:48.530Z,100357.22
2022-08-17T03:36:16.255Z,100359.09
2022-08-17T03:38:44.086Z,100361.13
2022-08-17T03:41:13.866Z,100362.13
2022-08-17T03:43:41.489Z,100357.97
2022-08-17T03:46:34.372Z,100364.38
2022-08-17T03:49:23.883Z,100355.66
2022-08-17T03:52:09.512Z,100359.56
2022-08-17T03:54:54.941Z,100356.25
2022-08-17T03:57:22.666Z,100356.41
2022-08-17T03:59:50.642Z,100361.16
2022-08-17T04:02:20.671Z,100355.13
2022-08-17T04:04:51.286Z,100360.69
2022-08-17T04:07:19.439Z,100362.75
2022-08-17T04:09:48.857Z,100369.97
2022-08-17T04:12:17.775Z,100359.41
2022-08-17T04:14:52.243Z,100367.63
2022-08-17T04:17:24.187Z,100372.03
2022-08-17T04:19:54.724Z,100374.72
2022-08-17T04:22:32.479Z,100366.66
2022-08-17T04:25:08.234Z,100370.31
2022-08-17T04:27:36.418Z,100372.19
2022-08-17T04:30:06.829Z,100374.72
2022-08-17T04:33:03.523Z,100380.91
2022-08-17T04:35:25.639Z,100387.69
2022-08-17T04:37:53.653Z,100395.75
2022-08-17T04:40:40.133Z,100394.06
2022-08-17T04:43:10.532Z,100398.63
2022-08-17T04:45:40.262Z,100396.78
2022-08-17T04:48:22.667Z,100400.91
2022-08-17T04:50:56.934Z,100396.22
2022-08-17T04:53:24.604Z,100399.53
2022-08-17T04:55:53.369Z,100395.81
2022-08-17T04:58:21.583Z,100401.66
2022-08-17T05:00:49.208Z,100402.69
2022-08-17T05:03:16.857Z,100408.72
2022-08-17T05:05:49.286Z,100415.94
2022-08-17T05:08:20.300Z,100418.81
2022-08-17T05:10:48.738Z,100423.81
2022-08-17T05:13:19.362Z,100422.78
2022-08-17T05:15:48.787Z,100422.44
2022-08-17T05:18:17.539Z,100423.25
2022-08-17T05:20:46.698Z,100419.34
2022-08-17T05:23:16.354Z,100430.78
2022-08-17T05:25:48.908Z,100432.44
2022-08-17T05:28:23.457Z,100432.03
2022-08-17T05:30:55.829Z,100433.53
2022-08-17T05:33:26.291Z,100429.00
2022-08-17T05:35:55.790Z,100429.63
2022-08-17T05:38:25.642Z,100418.50
2022-08-17T05:40:55.121Z,100419.97
2022-08-17T05:43:24.658Z,100416.91
2022-08-17T05:46:03.777Z,100417.19
2022-08-17T05:48:40.086Z,100419.28
2022-08-17T05:51:32.334Z,100424.75
2022-08-17T05:54:12.134Z,100419.47
2022-08-17T05:57:00.826Z,100421.22
2022-08-17T05:59:38.413Z,100418.41
2022-08-17T06:02:14.246Z,100412.91
2022-08-17T06:04:56.764Z,100406.56
2022-08-17T06:07:30.279Z,100406.63
2022-08-17T06:10:05.081Z,100414.75
2022-08-17T06:12:44.467Z,100405.53
2022-08-17T06:15:26.059Z,100407.25
2022-08-17T06:17:58.186Z,100407.09
2022-08-17T06:20:28.587Z,100399.06
2022-08-17T06:23:06.259Z,100397.88
2022-08-17T06:25:38.999Z,100399.41
2022-08-17T06:28:14.353Z,100405.31
2022-08-17T06:30:59.131Z,100403.28
2022-08-17T06:33:34.291Z,100401.06
2022-08-17T06:36:09.404Z,100402.56
2022-08-17T06:38:49.847Z,100402.22
2022-08-17T06:41:26.705Z,100393.94
2022-08-17T06:44:09.903Z,100398.97
2022-08-17T06:46:39.388Z,100395.88
2022-08-17T06:49:16.909Z,100395.50
2022-08-17T06:51:50.524Z,100391.00
2022-08-17T06:54:27.326Z,100387.91
2022-08-17T06:56:59.869Z,100395.41
2022-08-17T06:59:56.439Z,100384.84
2022-08-17T07:02:52.831Z,100390.25
2022-08-17T07:05:24.893Z,100397.53
2022-08-17T07:08:03.440Z,100391.94
2022-08-17T07:10:37.625Z,100396.28
2022-08-17T07:13:21.363Z,100389.41
2022-08-17T07:15:56.906Z,100394.19
2022-08-17T07:18:27.302Z,100394.38
2022-08-17T07:21:03.587Z,100392.22
2022-08-17T07:23:41.803Z,100401.31
2022-08-17T07:26:10.487Z,100399.44
2022-08-17T07:28:41.030Z,100404.19
2022-08-17T07:31:13.233Z,100399.31
2022-08-17T07:33:40.980Z,100395.22
2022-08-17T07:36:29.814Z,100397.38
2022-08-17T07:38:58.710Z,100392.03
2022-08-17T07:41:27.761Z,100403.41
2022-08-17T07:44:16.735Z,100396.31
2022-08-17T07:47:12.240Z,100408.97
2022-08-17T07:49:41.581Z,100412.19
2022-08-17T07:52:24.162Z,100409.19
2022-08-17T07:55:00.610Z,100404.78
2022-08-17T07:57:33.851Z,100406.00
2022-08-17T08:00:19.638Z,100406.97
2022-08-17T08:03:16.509Z,100404.41
2022-08-17T08:05:57.340Z,100406.06
2022-08-17T08:08:31.889Z,100403.50
2022-08-17T08:11:03.460Z,100408.25
2022-08-17T08:13:32.445Z,100403.66
2022-08-17T08:16:20.603Z,100405.06
2022-08-17T08:18:54.292Z,100409.84
2022-08-17T08:21:36.854Z,100406.44
2022-08-17T08:24:23.749Z,100413.88
2022-08-17T08:27:00.451Z,100418.03
2022-08-17T08:29:37.864Z,100419.25
2022-08-17T08:32:18.215Z,100413.94
2022-08-17T08:35:02.818Z,100416.59
2022-08-17T08:37:43.077Z,100417.31
2022-08-17T08:40:22.845Z,100421.03
2022-08-17T08:42:59.978Z,100414.47
2022-08-17T08:45:38.152Z,100415.19
2022-08-17T08:48:22.949Z,100416.78
2022-08-17T08:51:17.641Z,100411.97
2022-08-17T08:53:54.741Z,100417.56
2022-08-17T08:56:28.785Z,100420.63
2022-08-17T08:59:03.230Z,100412.78
2022-08-17T09:01:38.049Z,100404.38
2022-08-17T09:04:40.696Z,100406.84
2022-08-17T09:07:30.750Z,100399.88
2022-08-17T09:10:07.252Z,100393.84
2022-08-17T09:12:47.521Z,100395.47
2022-08-17T09:15:19.817Z,100393.81
2022-08-17T09:18:14.563Z,100396.50
2022-08-17T09:20:50.062Z,100394.56
2022-08-17T09:23:32.317Z,100386.56
2022-08-17T09:26:03.939Z,100384.66
2022-08-17T09:28:36.297Z,100398.34
2022-08-17T09:31:10.763Z,100386.47
2022-08-17T09:33:43.470Z,100393.69
2022-08-17T09:36:17.316Z,100385.88
2022-08-17T09:38:56.516Z,100386.78
2022-08-17T09:41:32.352Z,100381.44
2022-08-17T09:44:10.741Z,100387.78
2022-08-17T09:46:56.797Z,100393.09
2022-08-17T09:49:31.379Z,100390.44
2022-08-17T09:52:03.610Z,100395.72
2022-08-17T09:54:40.142Z,100394.75
2022-08-17T09:57:29.785Z,100401.41
2022-08-17T10:00:18.666Z,100397.94
2022-08-17T10:03:28.134Z,100395.69
2022-08-17T10:06:06.622Z,100389.22
2022-08-17T10:08:39.764Z,100375.88
2022-08-17T10:11:22.378Z,100375.41
2022-08-17T10:14:36.399Z,100381.16
2022-08-17T10:17:04.911Z,100379.59
2022-08-17T10:19:39.995Z,100380.16
2022-08-17T10:22:41.268Z,100388.94
2022-08-17T10:25:42.922Z,100378.84
2022-08-17T10:28:28.890Z,100378.59
2022-08-17T10:31:31.096Z,100383.22
2022-08-17T10:33:59.130Z,100380.75
2022-08-17T10:36:37.865Z,100377.19
2022-08-17T10:39:19.748Z,100374.22
2022-08-17T10:41:52.516Z,100375.03
2022-08-17T10:44:37.031Z,100369.56
2022-08-17T10:47:10.357Z,100368.50
2022-08-17T10:49:39.379Z,100368.84
2022-08-17T10:52:48.565Z,100369.41
2022-08-17T10:55:20.255Z,100370.56
2022-08-17T10:57:50.605Z,100370.03
2022-08-17T11:01:00.272Z,100371.19
2022-08-17T11:03:28.567Z,100369.28
2022-08-17T11:06:05.217Z,100367.97
2022-08-17T11:09:03.306Z,100368.53
2022-08-17T11:11:53.022Z,100367.44
2022-08-17T11:14:34.798Z,100367.44
2022-08-17T11:17:16.289Z,100365.53
2022-08-17T11:20:09.859Z,100364.44
2022-08-17T11:23:07.543Z,100375.13
2022-08-17T11:25:39.183Z,100372.63
2022-08-17T11:28:10.307Z,100377.88
2022-08-17T11:30:44.647Z,100383.25
2022-08-17T11:34:02.093Z,100378.88
2022-08-17T11:36:47.655Z,100374.25
2022-08-17T11:39:38.386Z,100382.75
2022-08-17T11:42:19.875Z,100383.88
2022-08-17T11:44:54.121Z,100387.28
2022-08-17T11:48:09.073Z,100387.09
2022-08-17T11:51:05.056Z,100381.44
2022-08-17T11:54:31.072Z,100385.84
2022-08-17T11:56:52.732Z,100393.72
2022-08-17T12:00:00.788Z,100404.31
2022-08-17T12:02:47.524Z,100414.34
2022-08-17T12:05:33.047Z,100404.66
2022-08-17T12:08:19.707Z,100411.38
2022-08-17T12:11:03.151Z,100421.66
2022-08-17T12:13:39.744Z,100417.63
2022-08-17T12:16:10.255Z,100411.78
2022-08-17T12:18:41.861Z,100413.25
2022-08-17T12:21:18.815Z,100426.59
2022-08-17T12:23:56.859Z,100423.09
2022-08-17T12:26:30.349Z,100419.47
2022-08-17T12:29:01.883Z,100413.66
2022-08-17T12:31:35.454Z,100410.94
2022-08-17T12:34:04.134Z,100406.81
2022-08-17T12:36:33.692Z,100406.00
2022-08-17T12:39:13.089Z,100410.13
2022-08-17T12:41:44.374Z,100408.22
2022-08-17T12:44:15.627Z,100412.03
2022-08-17T12:46:52.495Z,100414.50
2022-08-17T12:49:24.109Z,100410.69
2022-08-17T12:51:56.430Z,100411.03
2022-08-17T12:54:31.310Z,100414.56
2022-08-17T12:57:05.502Z,100413.75
2022-08-17T12:59:33.641Z,100412.78
2022-08-17T13:02:02.766Z,100410.41
2022-08-17T13:04:32.266Z,100412.06
2022-08-17T13:07:00.366Z,100412.13
2022-08-17T13:09:35.819Z,100413.88
2022-08-17T13:12:09.146Z,100422.34
2022-08-17T13:14:36.871Z,100411.78
2022-08-17T13:17:11.235Z,100414.25
2022-08-17T13:19:49.091Z,100414.78
2022-08-17T13:22:16.813Z,100409.53
2022-08-17T13:24:54.222Z,100403.19
2022-08-17T13:27:25.162Z,100399.06
2022-08-17T13:29:56.300Z,100402.28
2022-08-17T13:32:38.150Z,100397.31
2022-08-17T13:35:39.336Z,100398.31
2022-08-17T13:38:10.514Z,100384.31
2022-08-17T13:40:42.692Z,100387.88
2022-08-17T13:43:11.914Z,100379.22
2022-08-17T13:45:53.236Z,100384.50
2022-08-17T13:48:26.734Z,100377.50
2022-08-17T13:51:25.870Z,100374.88
2022-08-17T13:54:01.187Z,100367.59
2022-08-17T13:56:38.184Z,100361.84
2022-08-17T13:59:11.065Z,100357.16
2022-08-17T14:01:41.855Z,100356.56
2022-08-17T14:04:13.227Z,100344.41
2022-08-17T14:06:53.828Z,100350.41
2022-08-17T14:09:24.400Z,100346.81
2022-08-17T14:11:53.959Z,100348.13
2022-08-17T14:14:23.012Z,100345.38
2022-08-17T14:16:50.883Z,100334.75
2022-08-17T14:19:21.819Z,100334.94
2022-08-17T14:21:50.152Z,100337.03
2022-08-17T14:24:23.535Z,100332.22
2022-08-17T14:26:52.854Z,100336.16
2022-08-17T14:29:21.297Z,100337.88
2022-08-17T14:31:54.291Z,100326.41
2022-08-17T14:34:24.702Z,100331.09
2022-08-17T14:36:53.177Z,100330.31
2022-08-17T14:39:21.189Z,100329.50
2022-08-17T14:41:49.013Z,100330.59
2022-08-17T14:44:16.821Z,100337.75
2022-08-17T14:46:45.769Z,100328.69
2022-08-17T14:49:15.535Z,100329.25
2022-08-17T14:51:44.802Z,100324.03
2022-08-17T14:54:28.779Z,100316.34
2022-08-17T14:57:22.531Z,100317.16
2022-08-17T14:59:50.704Z,100317.97
2022-08-17T15:02:29.443Z,100318.50
2022-08-17T15:05:01.643Z,100320.72
2022-08-17T15:07:31.423Z,100313.28
2022-08-17T15:10:00.760Z,100323.16
2022-08-17T15:12:33.354Z,100321.81
2022-08-17T15:15:02.025Z,100328.13
2022-08-17T15:17:44.485Z,100323.47
2022-08-17T15:20:16.579Z,100328.16
2022-08-17T15:22:49.370Z,100321.03
2022-08-17T15:25:17.559Z,100326.78
2022-08-17T15:27:45.361Z,100326.22
2022-08-17T15:30:14.630Z,100329.81
2022-08-17T15:32:50.734Z,100328.16
2022-08-17T15:35:28.182Z,100321.56
2022-08-17T15:38:06.244Z,100325.66
2022-08-17T15:40:36.994Z,100334.66
2022-08-17T15:43:10.315Z,100338.22
2022-08-17T15:45:38.290Z,100329.16
2022-08-17T15:48:06.835Z,100328.81
2022-08-17T15:50:34.886Z,100330.41
2022-08-17T15:53:04.711Z,100339.91
2022-08-17T15:55:33.639Z,100334.63
2022-08-17T15:58:01.767Z,100343.31
2022-08-17T16:00:30.336Z,100339.69
2022-08-17T16:03:29.440Z,100345.38
2022-08-17T16:05:48.916Z,100349.09
2022-08-17T16:08:21.149Z,100360.75
2022-08-17T16:10:49.980Z,100364.44
2022-08-17T16:13:18.719Z,100349.22
2022-08-17T16:15:56.568Z,100347.97
2022-08-17T16:18:27.299Z,100352.50
2022-08-17T16:20:55.107Z,100355.06
2022-08-17T16:23:24.760Z,100357.44
2022-08-17T16:25:54.243Z,100355.97
2022-08-17T16:28:23.604Z,100344.69
2022-08-17T16:31:03.862Z,100342.38
2022-08-17T16:33:31.466Z,100348.03
2022-08-17T16:35:59.247Z,100338.63
2022-08-17T16:38:28.326Z,100342.09
2022-08-17T16:40:55.995Z,100340.63
2022-08-17T16:43:23.638Z,100344.13
2022-08-17T16:45:52.233Z,100347.38
2022-08-17T16:48:20.035Z,100356.03
2022-08-17T16:51:03.198Z,100355.97
2022-08-17T16:53:33.343Z,100358.13
2022-08-17T16:56:01.051Z,100359.44
2022-08-17T16:58:29.017Z,100359.69
2022-08-17T17:00:59.556Z,100362.13
2022-08-17T17:03:31.818Z,100374.00
2022-08-17T17:06:08.534Z,100370.38
2022-08-17T17:08:44.802Z,100375.22
2022-08-17T17:11:16.335Z,100379.03
2022-08-17T17:13:50.639Z,100385.00
2022-08-17T17:16:21.621Z,100386.31
2022-08-17T17:19:04.491Z,100391.66
2022-08-17T17:21:38.350Z,100399.78
2022-08-17T17:24:15.046Z,100400.53
2022-08-17T17:26:57.264Z,100405.63
2022-08-17T17:29:48.186Z,100411.81
2022-08-17T17:32:21.378Z,100415.53
2022-08-17T17:34:52.318Z,100407.25
2022-08-17T17:37:26.391Z,100400.88
2022-08-17T17:39:59.876Z,100398.81
2022-08-17T17:42:31.362Z,100407.69
2022-08-17T17:45:08.601Z,100411.16
2022-08-17T17:47:38.274Z,100419.81
2022-08-17T17:50:07.979Z,100431.19
2022-08-17T17:52:45.271Z,100432.78
2022-08-17T17:55:26.245Z,100436.22
2022-08-17T17:58:04.299Z,100437.75
2022-08-17T18:00:38.179Z,100443.09
2022-08-17T18:03:20.420Z,100443.81
2022-08-17T18:06:25.749Z,100445.63
2022-08-17T18:09:04.757Z,100447.41
2022-08-17T18:11:51.746Z,100453.81
2022-08-17T18:14:32.112Z,100452.06
2022-08-17T18:17:02.217Z,100458.44
2022-08-17T18:19:31.977Z,100447.63
2022-08-17T18:22:06.937Z,100457.84
2022-08-17T18:24:37.878Z,100465.06
2022-08-17T18:27:21.562Z,100466.25
2022-08-17T18:29:51.180Z,100465.75
2022-08-17T18:32:25.498Z,100464.59
2022-08-17T18:34:55.643Z,100477.00
2022-08-17T18:37:42.567Z,100460.31
2022-08-17T18:40:36.182Z,100466.47
2022-08-17T18:43:23.772Z,100472.03
2022-08-17T18:45:54.189Z,100477.34
2022-08-17T18:48:28.966Z,100476.13
2022-08-17T18:51:00.306Z,100470.31
2022-08-17T18:53:38.125Z,100466.66
2022-08-17T18:56:21.353Z,100479.28
2022-08-17T18:59:03.225Z,100479.16
2022-08-17T19:01:46.962Z,100481.88
2022-08-17T19:04:34.561Z,100478.88
2022-08-17T19:07:09.243Z,100486.66
2022-08-17T19:09:41.358Z,100487.38
2022-08-17T19:12:27.571Z,100497.03
2022-08-17T19:14:58.688Z,100502.31
2022-08-17T19:17:35.259Z,100505.28
2022-08-17T19:20:10.517Z,100491.94
2022-08-17T19:22:50.656Z,100500.28
2022-08-17T19:25:24.210Z,100503.47
2022-08-17T19:27:59.926Z,100504.75
2022-08-17T19:30:29.457Z,100504.16
2022-08-17T19:32:58.384Z,100517.16
2022-08-17T19:35:32.219Z,100517.59
2022-08-17T19:38:13.336Z,100526.41
2022-08-17T19:40:54.028Z,100527.72
2022-08-17T19:43:30.118Z,100523.59
2022-08-17T19:46:08.433Z,100525.91
2022-08-17T19:48:47.084Z,100522.56
2022-08-17T19:51:21.384Z,100517.56
2022-08-17T19:54:05.341Z,100519.69
2022-08-17T19:56:45.077Z,100518.25
2022-08-17T19:59:21.244Z,100518.97
2022-08-17T20:01:53.930Z,100514.78
2022-08-17T20:04:35.392Z,100504.41
2022-08-17T20:07:08.463Z,100499.63
2022-08-17T20:09:39.511Z,100502.78
2022-08-17T20:12:10.755Z,100505.97
2022-08-17T20:14:53.944Z,100505.59
2022-08-17T20:17:28.614Z,100504.59
2022-08-17T20:20:03.071Z,100505.50
2022-08-17T20:22:46.750Z,100508.88
2022-08-17T20:25:30.566Z,100520.44
2022-08-17T20:28:05.939Z,100527.56
2022-08-17T20:30:38.349Z,100521.97
2022-08-17T20:33:12.482Z,100523.88
2022-08-17T20:36:00.307Z,100531.03
2022-08-17T20:38:43.307Z,100530.88
2022-08-17T20:41:14.503Z,100531.75
2022-08-17T20:44:05.022Z,100537.00
2022-08-17T20:46:52.802Z,100530.81
2022-08-17T20:49:27.672Z,100536.28
2022-08-17T20:52:03.670Z,100528.19
2022-08-17T20:54:48.197Z,100541.34
2022-08-17T20:57:45.512Z,100550.38
2022-08-17T21:00:34.488Z,100553.13
2022-08-17T21:03:39.972Z,100552.94
2022-08-17T21:06:23.112Z,100557.56
2022-08-17T21:08:58.768Z,100559.25
2022-08-17T21:12:02.384Z,100557.81
2022-08-17T21:14:59.523Z,100558.63
2022-08-17T21:17:39.940Z,100563.88
2022-08-17T21:20:26.935Z,100566.19
2022-08-17T21:23:24.181Z,100570.59
2022-08-17T21:26:08.224Z,100567.69
2022-08-17T21:29:01.305Z,100567.28
2022-08-17T21:31:35.967Z,100569.81
2022-08-17T21:34:32.817Z,100575.66
2022-08-17T21:37:29.673Z,100574.41
2022-08-17T21:40:01.175Z,100579.44
2022-08-17T21:42:32.356Z,100581.72
2022-08-17T21:45:11.556Z,100583.81
2022-08-17T21:47:47.687Z,100577.97
2022-08-17T21:50:21.422Z,100581.13
2022-08-17T21:52:51.359Z,100574.25
2022-08-17T21:55:28.091Z,100576.34
2022-08-17T21:58:13.807Z,100572.38
2022-08-17T22:00:44.194Z,100573.88
2022-08-17T22:03:24.027Z,100577.00
2022-08-17T22:05:51.761Z,100573.88
2022-08-17T22:08:22.973Z,100572.41
2022-08-17T22:11:01.991Z,100578.22
2022-08-17T22:13:30.131Z,100579.69
2022-08-17T22:16:15.462Z,100576.56
2022-08-17T22:18:58.573Z,100578.88
2022-08-17T22:21:26.655Z,100581.16
2022-08-17T22:24:06.603Z,100580.53
2022-08-17T22:27:02.765Z,100576.56
2022-08-17T22:29:57.428Z,100592.38
2022-08-17T22:32:34.475Z,100593.88
2022-08-17T22:35:33.088Z,100596.34
2022-08-17T22:38:26.091Z,100599.47
2022-08-17T22:40:55.493Z,100599.03
2022-08-17T22:43:28.955Z,100605.06
2022-08-17T22:45:59.814Z,100597.34
2022-08-17T22:48:31.149Z,100609.81
2022-08-17T22:51:12.849Z,100604.97
2022-08-17T22:54:04.477Z,100602.47
2022-08-17T22:56:50.119Z,100599.75
2022-08-17T22:59:38.339Z,100602.22
2022-08-17T23:02:23.621Z,100599.06
2022-08-17T23:04:54.099Z,100609.88
2022-08-17T23:07:22.031Z,100607.75
2022-08-17T23:09:49.813Z,100610.88
2022-08-17T23:12:22.017Z,100610.44
2022-08-17T23:14:58.338Z,100611.25
2022-08-17T23:17:27.506Z,100606.44
2022-08-17T23:19:56.958Z,100608.06
2022-08-17T23:22:25.359Z,100607.41
2022-08-17T23:24:53.065Z,100604.88
2022-08-17T23:27:22.078Z,100603.00
2022-08-17T23:29:51.373Z,100596.50
2022-08-17T23:32:19.603Z,100604.34
2022-08-17T23:34:50.775Z,100595.78
2022-08-17T23:37:19.925Z,100605.97
2022-08-17T23:39:47.624Z,100609.44
2022-08-17T23:42:21.760Z,100610.63
2022-08-17T23:44:51.057Z,100601.44
2022-08-17T23:47:18.719Z,100600.19
2022-08-17T23:49:46.340Z,100604.31
2022-08-17T23:52:16.506Z,100611.09
2022-08-17T23:54:46.491Z,100598.84
2022-08-17T23:57:16.567Z,100589.28
2022-08-17T23:59:44.972Z,100604.84
